createdAt,value
2023-03-26T00:01:33.644Z,93.10
2023-03-26T00:04:01.266Z,92.60
2023-03-26T00:06:36.868Z,92.60
2023-03-26T00:09:06.910Z,92.80
2023-03-26T00:11:35.924Z,92.90
2023-03-26T00:14:03.659Z,93.10
2023-03-26T00:16:32.447Z,93.10
2023-03-26T00:19:01.715Z,93.20
2023-03-26T00:21:30.916Z,93.00
2023-03-26T00:24:06.171Z,92.90
2023-03-26T00:26:40.989Z,92.90
2023-03-26T00:29:09.887Z,93.10
2023-03-26T00:31:39.848Z,93.30
2023-03-26T00:34:06.957Z,93.30
2023-03-26T00:36:36.023Z,93.50
2023-03-26T00:39:06.024Z,94.10
2023-03-26T00:41:37.124Z,93.80
2023-03-26T00:44:04.312Z,94.20
2023-03-26T00:46:32.186Z,94.00
2023-03-26T00:49:00.605Z,94.60
2023-03-26T00:51:28.764Z,94.20
2023-03-26T00:53:59.997Z,94.20
2023-03-26T00:56:27.105Z,94.60
2023-03-26T00:58:54.149Z,94.10
2023-03-26T01:01:27.736Z,94.10
2023-03-26T01:04:08.917Z,94.50
2023-03-26T01:06:41.438Z,95.00
2023-03-26T01:09:16.896Z,94.40
2023-03-26T01:11:44.644Z,94.40
2023-03-26T01:14:17.066Z,95.30
2023-03-26T01:17:06.996Z,94.90
2023-03-26T01:20:13.287Z,94.10
2023-03-26T01:22:49.975Z,94.20
2023-03-26T01:25:17.108Z,94.70
2023-03-26T01:27:54.981Z,94.60
2023-03-26T01:30:41.518Z,94.70
2023-03-26T01:33:21.116Z,94.60
2023-03-26T01:36:17.674Z,95.30
2023-03-26T01:39:11.614Z,94.70
2023-03-26T01:41:45.548Z,94.70
2023-03-26T01:44:27.633Z,94.60
2023-03-26T01:46:55.674Z,94.60
2023-03-26T01:49:22.780Z,95.00
2023-03-26T01:51:51.537Z,94.90
2023-03-26T01:54:22.996Z,94.70
2023-03-26T01:57:23.535Z,95.10
2023-03-26T02:00:31.358Z,95.00
2023-03-26T02:03:30.652Z,95.00
2023-03-26T02:06:42.627Z,95.00
2023-03-26T02:09:16.207Z,95.40
2023-03-26T02:11:45.189Z,97.00
2023-03-26T02:14:13.846Z,97.40
2023-03-26T02:16:41.035Z,96.30
2023-03-26T02:19:15.512Z,96.50
2023-03-26T02:21:42.788Z,97.40
2023-03-26T02:24:09.701Z,96.40
2023-03-26T02:26:37.725Z,96.80
2023-03-26T02:29:05.153Z,96.90
2023-03-26T02:31:32.145Z,97.20
2023-03-26T02:33:59.020Z,97.30
2023-03-26T02:36:28.043Z,98.10
2023-03-26T02:38:57.872Z,97.20
2023-03-26T02:41:25.081Z,97.30
2023-03-26T02:43:52.063Z,97.90
2023-03-26T02:46:19.169Z,97.40
2023-03-26T02:48:46.231Z,97.60
2023-03-26T02:51:13.171Z,97.60
2023-03-26T02:53:41.228Z,97.00
2023-03-26T02:56:09.113Z,95.70
2023-03-26T02:58:36.210Z,95.90
2023-03-26T03:01:03.399Z,96.70
2023-03-26T03:03:30.897Z,96.20
2023-03-26T03:05:58.128Z,96.60
2023-03-26T03:08:28.147Z,96.50
2023-03-26T03:11:13.299Z,97.00
2023-03-26T03:13:42.219Z,96.50
2023-03-26T03:16:10.761Z,96.80
2023-03-26T03:18:37.971Z,97.60
2023-03-26T03:21:06.327Z,97.90
2023-03-26T03:23:34.849Z,97.30
2023-03-26T03:26:02.648Z,97.20
2023-03-26T03:28:30.530Z,96.80
2023-03-26T03:30:57.616Z,96.80
2023-03-26T03:33:24.687Z,97.00
2023-03-26T03:35:51.850Z,97.80
2023-03-26T03:38:19.310Z,98.50
2023-03-26T03:40:46.595Z,98.20
2023-03-26T03:43:13.540Z,98.10
2023-03-26T03:45:40.641Z,98.30
2023-03-26T03:48:07.671Z,98.50
2023-03-26T03:50:35.872Z,98.60
2023-03-26T03:53:05.603Z,99.30
2023-03-26T03:55:32.653Z,98.60
2023-03-26T03:57:59.990Z,98.60
2023-03-26T04:00:27.011Z,98.80
2023-03-26T04:02:54.585Z,99.30
2023-03-26T04:05:21.895Z,99.70
2023-03-26T04:07:48.840Z,99.20
2023-03-26T04:10:16.435Z,99.20
2023-03-26T04:12:43.391Z,98.90
2023-03-26T04:15:11.186Z,98.90
2023-03-26T04:17:44.945Z,99.00
2023-03-26T04:20:15.728Z,99.50
2023-03-26T04:22:44.025Z,99.40
2023-03-26T04:25:12.775Z,99.90
2023-03-26T04:27:41.764Z,99.80
2023-03-26T04:30:15.011Z,99.90
2023-03-26T04:32:43.146Z,99.60
2023-03-26T04:35:14.811Z,99.60
2023-03-26T04:37:44.248Z,99.50
2023-03-26T04:40:18.383Z,99.60
2023-03-26T04:42:48.417Z,99.70
2023-03-26T04:45:22.604Z,99.90
2023-03-26T04:47:52.466Z,99.80
2023-03-26T04:50:19.469Z,99.90
2023-03-26T04:52:46.578Z,99.90
2023-03-26T04:55:46.234Z,99.90
2023-03-26T04:58:13.976Z,99.90
2023-03-26T05:00:42.071Z,99.90
2023-03-26T05:03:12.591Z,99.90
2023-03-26T05:05:40.577Z,99.90
2023-03-26T05:08:07.888Z,99.90
2023-03-26T05:10:34.929Z,99.90
2023-03-26T05:13:01.847Z,99.90
2023-03-26T05:15:28.804Z,99.90
2023-03-26T05:17:56.043Z,99.90
2023-03-26T05:20:27.001Z,99.90
2023-03-26T05:22:54.134Z,99.70
2023-03-26T05:25:21.026Z,99.90
2023-03-26T05:27:48.335Z,99.90
2023-03-26T05:30:21.157Z,99.60
2023-03-26T05:32:49.671Z,99.80
2023-03-26T05:35:17.333Z,99.80
2023-03-26T05:37:46.263Z,99.90
2023-03-26T05:40:14.985Z,99.90
2023-03-26T05:42:42.702Z,99.80
2023-03-26T05:45:13.150Z,99.90
2023-03-26T05:47:40.680Z,99.80
2023-03-26T05:50:09.132Z,99.40
2023-03-26T05:52:36.125Z,99.80
2023-03-26T05:55:03.232Z,99.90
2023-03-26T05:57:31.164Z,99.90
2023-03-26T05:59:58.153Z,99.90
2023-03-26T06:02:25.173Z,99.90
2023-03-26T06:04:52.554Z,99.70
2023-03-26T06:07:20.247Z,99.70
2023-03-26T06:09:47.211Z,99.60
2023-03-26T06:12:14.967Z,99.90
2023-03-26T06:14:42.894Z,99.90
2023-03-26T06:17:10.734Z,99.90
2023-03-26T06:19:37.846Z,99.90
2023-03-26T06:22:05.949Z,99.80
2023-03-26T06:24:34.399Z,99.90
2023-03-26T06:27:01.385Z,99.90
2023-03-26T06:29:28.488Z,99.60
2023-03-26T06:31:55.395Z,99.20
2023-03-26T06:34:22.354Z,99.10
2023-03-26T06:36:52.491Z,99.70
2023-03-26T06:39:20.298Z,99.20
2023-03-26T06:41:47.545Z,99.60
2023-03-26T06:44:14.521Z,98.40
2023-03-26T06:46:41.591Z,98.20
2023-03-26T06:49:08.692Z,98.00
2023-03-26T06:51:36.046Z,97.70
2023-03-26T06:54:02.904Z,97.30
2023-03-26T06:56:29.828Z,98.30
2023-03-26T06:58:56.826Z,97.90
2023-03-26T07:01:23.886Z,98.30
2023-03-26T07:03:50.884Z,97.30
2023-03-26T07:06:17.868Z,98.20
2023-03-26T07:08:44.830Z,97.90
2023-03-26T07:11:11.906Z,97.60
2023-03-26T07:13:40.031Z,98.00
2023-03-26T07:16:07.692Z,97.70
2023-03-26T07:18:34.713Z,96.40
2023-03-26T07:21:02.135Z,96.20
2023-03-26T07:23:29.352Z,96.10
2023-03-26T07:25:56.741Z,95.40
2023-03-26T07:28:37.527Z,95.50
2023-03-26T07:31:56.340Z,96.30
2023-03-26T07:34:47.525Z,95.10
2023-03-26T07:37:25.968Z,94.80
2023-03-26T07:40:08.106Z,94.80
2023-03-26T07:43:45.440Z,95.20
2023-03-26T07:46:14.170Z,95.00
2023-03-26T07:48:50.035Z,94.80
2023-03-26T07:51:18.794Z,94.70
2023-03-26T07:53:46.350Z,94.10
2023-03-26T07:56:39.113Z,94.30
2023-03-26T07:59:21.536Z,93.80
2023-03-26T08:02:00.321Z,94.70
2023-03-26T08:04:50.448Z,94.00
2023-03-26T08:07:29.266Z,93.40
2023-03-26T08:10:16.721Z,93.80
2023-03-26T08:12:58.233Z,93.80
2023-03-26T08:15:41.840Z,93.70
2023-03-26T08:18:30.438Z,93.60
2023-03-26T08:21:14.215Z,93.20
2023-03-26T08:24:25.321Z,93.40
2023-03-26T08:27:08.690Z,93.70
2023-03-26T08:30:02.193Z,93.00
2023-03-26T08:32:29.567Z,93.40
2023-03-26T08:34:57.604Z,92.70
2023-03-26T08:37:24.504Z,92.40
2023-03-26T08:39:51.582Z,93.20
2023-03-26T08:42:30.345Z,92.40
2023-03-26T08:45:34.748Z,91.80
2023-03-26T08:48:44.668Z,92.50
2023-03-26T08:51:48.421Z,92.00
2023-03-26T08:54:44.415Z,91.50
2023-03-26T08:58:16.979Z,91.70
2023-03-26T09:01:32.025Z,90.60
2023-03-26T09:04:13.254Z,90.20
2023-03-26T09:07:32.942Z,89.70
2023-03-26T09:10:51.920Z,89.10
2023-03-26T09:13:57.015Z,89.30
2023-03-26T09:16:51.154Z,91.30
2023-03-26T09:19:48.572Z,90.20
2023-03-26T09:23:16.649Z,90.10
2023-03-26T09:26:18.844Z,88.90
2023-03-26T09:29:16.784Z,89.40
2023-03-26T09:32:02.496Z,89.50
2023-03-26T09:35:13.570Z,90.00
2023-03-26T09:38:22.117Z,86.80
2023-03-26T09:41:09.648Z,85.80
2023-03-26T09:43:47.097Z,83.80
2023-03-26T09:46:39.945Z,83.70
2023-03-26T09:49:38.757Z,82.00
2023-03-26T09:52:32.984Z,81.00
2023-03-26T09:55:24.377Z,80.70
2023-03-26T09:58:19.946Z,79.30
2023-03-26T10:01:34.270Z,78.80
2023-03-26T10:04:18.582Z,80.10
2023-03-26T10:07:22.370Z,79.80
2023-03-26T10:10:57.259Z,80.70
2023-03-26T10:14:04.188Z,80.40
2023-03-26T10:16:33.801Z,83.50
2023-03-26T10:19:27.203Z,78.40
2023-03-26T10:22:28.192Z,77.90
2023-03-26T10:25:48.547Z,78.50
2023-03-26T10:28:45.882Z,77.50
2023-03-26T10:31:40.672Z,75.90
2023-03-26T10:34:29.938Z,75.30
2023-03-26T10:37:18.042Z,74.80
2023-03-26T10:40:00.640Z,71.30
2023-03-26T10:42:45.277Z,71.10
2023-03-26T10:45:27.270Z,70.80
2023-03-26T10:48:28.017Z,73.60
2023-03-26T10:51:26.497Z,72.30
2023-03-26T10:54:06.242Z,68.50
2023-03-26T10:56:46.348Z,69.10
2023-03-26T10:59:15.800Z,67.50
2023-03-26T11:02:32.536Z,67.90
2023-03-26T11:05:34.503Z,64.80
2023-03-26T11:08:13.744Z,63.50
2023-03-26T11:10:50.936Z,63.00
2023-03-26T11:13:48.744Z,62.90
2023-03-26T11:16:47.909Z,59.10
2023-03-26T11:19:20.994Z,59.10
2023-03-26T11:22:04.034Z,59.70
2023-03-26T11:25:02.798Z,61.50
2023-03-26T11:27:40.595Z,62.50
2023-03-26T11:30:47.277Z,60.20
2023-03-26T11:33:21.886Z,59.40
2023-03-26T11:35:51.825Z,61.10
2023-03-26T11:38:37.489Z,60.00
2023-03-26T11:41:22.781Z,61.20
2023-03-26T11:44:02.768Z,59.20
2023-03-26T11:46:33.604Z,59.20
2023-03-26T11:49:06.840Z,60.50
2023-03-26T11:51:39.433Z,59.70
2023-03-26T11:54:10.897Z,60.40
2023-03-26T11:57:04.597Z,60.40
2023-03-26T11:59:55.647Z,58.40
2023-03-26T12:02:35.537Z,57.70
2023-03-26T12:05:17.925Z,58.30
2023-03-26T12:07:52.382Z,58.00
2023-03-26T12:10:31.478Z,57.50
2023-03-26T12:13:03.425Z,57.60
2023-03-26T12:15:34.067Z,59.00
2023-03-26T12:18:26.843Z,59.50
2023-03-26T12:21:08.747Z,58.60
2023-03-26T12:24:05.319Z,58.10
2023-03-26T12:26:44.823Z,56.10
2023-03-26T12:29:15.846Z,54.80
2023-03-26T12:32:04.472Z,56.80
2023-03-26T12:34:35.428Z,56.10
2023-03-26T12:37:05.515Z,54.70
2023-03-26T12:40:07.852Z,56.40
2023-03-26T12:44:53.177Z,55.30
2023-03-26T12:45:23.918Z,56.50
2023-03-26T12:48:02.354Z,55.40
2023-03-26T12:51:03.804Z,57.00
2023-03-26T12:53:49.266Z,55.50
2023-03-26T12:56:21.512Z,56.60
2023-03-26T12:59:09.440Z,56.50
2023-03-26T13:01:55.694Z,57.10
2023-03-26T13:04:25.216Z,58.00
2023-03-26T13:07:06.389Z,58.30
2023-03-26T13:09:58.715Z,58.80
2023-03-26T13:12:56.951Z,59.70
2023-03-26T13:15:38.933Z,59.10
2023-03-26T13:18:37.850Z,59.40
2023-03-26T13:21:23.003Z,59.30
2023-03-26T13:24:51.071Z,59.40
2023-03-26T13:27:44.862Z,60.60
2023-03-26T13:30:45.248Z,61.40
2023-03-26T13:33:44.640Z,60.20
2023-03-26T13:36:45.943Z,59.80
2023-03-26T13:39:57.940Z,59.80
2023-03-26T13:43:15.496Z,60.20
2023-03-26T13:46:07.246Z,61.10
2023-03-26T13:48:49.268Z,61.40
2023-03-26T13:51:29.361Z,61.00
2023-03-26T13:54:15.789Z,59.30
2023-03-26T13:56:56.866Z,62.10
2023-03-26T13:59:40.465Z,62.00
2023-03-26T14:02:26.563Z,63.80
2023-03-26T14:05:01.289Z,62.50
2023-03-26T14:07:45.199Z,62.40
2023-03-26T14:10:18.794Z,61.60
2023-03-26T14:13:05.605Z,63.40
2023-03-26T14:15:51.580Z,62.60
2023-03-26T14:18:30.265Z,60.50
2023-03-26T14:21:34.218Z,60.80
2023-03-26T14:24:13.285Z,60.10
2023-03-26T14:27:08.312Z,59.90
2023-03-26T14:30:12.288Z,60.90
2023-03-26T14:33:27.460Z,58.70
2023-03-26T14:36:29.545Z,57.10
2023-03-26T14:39:37.032Z,53.70
2023-03-26T14:43:01.793Z,54.90
2023-03-26T14:46:08.064Z,53.70
2023-03-26T14:48:48.304Z,54.70
2023-03-26T14:51:45.104Z,53.30
2023-03-26T14:54:27.205Z,52.80
2023-03-26T14:57:12.534Z,53.50
2023-03-26T15:00:33.811Z,54.40
2023-03-26T15:03:34.680Z,55.20
2023-03-26T15:06:37.994Z,55.70
2023-03-26T15:09:39.215Z,56.20
2023-03-26T15:12:37.176Z,57.10
2023-03-26T15:15:54.104Z,57.40
2023-03-26T15:19:31.664Z,59.00
2023-03-26T15:22:59.829Z,59.60
2023-03-26T15:26:09.881Z,60.30
2023-03-26T15:29:05.955Z,61.30
2023-03-26T15:31:57.701Z,61.90
2023-03-26T15:34:52.204Z,62.80
2023-03-26T15:37:34.354Z,63.30
2023-03-26T15:40:31.647Z,63.60
2023-03-26T15:43:01.546Z,63.90
2023-03-26T15:46:06.160Z,64.10
2023-03-26T15:49:19.201Z,64.60
2023-03-26T15:52:15.302Z,65.40
2023-03-26T15:55:31.378Z,66.10
2023-03-26T15:58:18.066Z,66.50
2023-03-26T16:01:47.065Z,66.80
2023-03-26T16:04:59.155Z,68.50
2023-03-26T16:07:41.484Z,70.10
2023-03-26T16:10:28.461Z,72.20
2023-03-26T16:13:24.159Z,74.20
2023-03-26T16:16:21.030Z,74.30
2023-03-26T16:19:21.797Z,75.40
2023-03-26T16:22:04.475Z,75.40
2023-03-26T16:24:36.147Z,74.80
2023-03-26T16:27:15.242Z,77.00
2023-03-26T16:30:26.647Z,77.90
2023-03-26T16:32:58.728Z,78.30
2023-03-26T16:35:41.822Z,79.50
2023-03-26T16:38:16.241Z,80.10
2023-03-26T16:41:18.797Z,80.90
2023-03-26T16:44:18.662Z,81.30
2023-03-26T16:46:54.463Z,82.30
2023-03-26T16:50:08.269Z,83.20
2023-03-26T16:52:47.810Z,84.20
2023-03-26T16:55:28.350Z,84.60
2023-03-26T16:58:17.111Z,85.50
2023-03-26T17:01:21.375Z,86.60
2023-03-26T17:04:01.724Z,86.70
2023-03-26T17:06:45.879Z,87.60
2023-03-26T17:09:51.934Z,88.70
2023-03-26T17:12:42.871Z,89.80
2023-03-26T17:15:59.812Z,90.40
2023-03-26T17:18:57.665Z,88.10
2023-03-26T17:21:47.815Z,90.00
2023-03-26T17:24:57.001Z,90.40
2023-03-26T17:27:50.101Z,91.10
2023-03-26T17:30:38.474Z,91.50
2023-03-26T17:33:06.413Z,91.70
2023-03-26T17:35:45.773Z,92.80
2023-03-26T17:38:24.720Z,92.60
2023-03-26T17:40:58.936Z,93.20
2023-03-26T17:43:46.177Z,93.60
2023-03-26T17:46:29.175Z,93.90
2023-03-26T17:49:18.515Z,94.50
2023-03-26T17:52:00.441Z,94.40
2023-03-26T17:54:27.360Z,95.20
2023-03-26T17:56:56.499Z,95.50
2023-03-26T17:59:27.235Z,96.50
2023-03-26T18:02:00.944Z,96.00
2023-03-26T18:04:41.045Z,96.90
2023-03-26T18:07:45.131Z,96.90
2023-03-26T18:10:38.991Z,97.10
2023-03-26T18:13:48.869Z,97.00
2023-03-26T18:16:26.250Z,97.10
2023-03-26T18:18:59.537Z,97.00
2023-03-26T18:21:39.243Z,97.40
2023-03-26T18:24:11.268Z,96.50
2023-03-26T18:26:43.755Z,96.40
2023-03-26T18:29:24.048Z,97.70
2023-03-26T18:31:58.429Z,98.00
2023-03-26T18:34:31.472Z,98.60
2023-03-26T18:37:28.561Z,99.60
2023-03-26T18:40:18.325Z,99.20
2023-03-26T18:42:53.063Z,99.70
2023-03-26T18:45:33.663Z,99.90
2023-03-26T18:48:06.001Z,99.90
2023-03-26T18:50:37.263Z,99.90
2023-03-26T18:53:10.106Z,99.90
2023-03-26T18:55:40.352Z,99.90
2023-03-26T18:58:32.735Z,99.90
2023-03-26T19:01:20.146Z,99.90
2023-03-26T19:03:53.771Z,99.90
2023-03-26T19:06:23.325Z,99.90
2023-03-26T19:08:50.773Z,99.90
2023-03-26T19:11:18.292Z,99.90
2023-03-26T19:13:59.730Z,99.90
2023-03-26T19:16:33.869Z,99.90
2023-03-26T19:19:05.427Z,99.90
2023-03-26T19:21:34.637Z,99.90
2023-03-26T19:24:03.755Z,99.90
2023-03-26T19:26:31.620Z,99.90
2023-03-26T19:28:58.748Z,99.90
2023-03-26T19:31:36.733Z,99.90
2023-03-26T19:34:15.628Z,99.90
2023-03-26T19:37:00.967Z,99.90
2023-03-26T19:39:44.826Z,99.90
2023-03-26T19:42:42.971Z,99.90
2023-03-26T19:45:23.223Z,99.90
2023-03-26T19:48:00.645Z,99.90
2023-03-26T19:50:37.185Z,99.90
2023-03-26T19:53:19.241Z,99.90
2023-03-26T19:56:14.600Z,99.90
2023-03-26T19:58:42.802Z,99.90
2023-03-26T20:01:18.746Z,99.90
2023-03-26T20:03:49.918Z,99.90
2023-03-26T20:06:20.960Z,99.90
2023-03-26T20:08:52.096Z,99.90
2023-03-26T20:11:23.575Z,99.90
2023-03-26T20:13:52.402Z,99.90
2023-03-26T20:16:37.742Z,99.90
2023-03-26T20:19:04.767Z,99.90
2023-03-26T20:21:35.162Z,99.90
2023-03-26T20:24:02.921Z,99.90
2023-03-26T20:26:29.897Z,99.90
2023-03-26T20:28:57.146Z,99.90
2023-03-26T20:31:26.738Z,99.90
2023-03-26T20:33:54.658Z,99.90
2023-03-26T20:36:33.591Z,99.90
2023-03-26T20:39:06.282Z,99.90
2023-03-26T20:41:34.478Z,99.90
2023-03-26T20:44:03.719Z,99.90
2023-03-26T20:46:31.915Z,99.90
2023-03-26T20:48:59.943Z,99.90
2023-03-26T20:51:30.599Z,99.90
2023-03-26T20:53:57.581Z,99.90
2023-03-26T20:56:24.583Z,99.90
2023-03-26T20:59:09.857Z,99.90
2023-03-26T21:01:38.599Z,99.90
2023-03-26T21:04:06.526Z,99.90
2023-03-26T21:06:33.424Z,99.90
2023-03-26T21:09:00.817Z,99.90
2023-03-26T21:12:02.890Z,99.90
2023-03-26T21:14:41.790Z,99.90
2023-03-26T21:17:20.626Z,99.90
2023-03-26T21:19:49.155Z,99.90
2023-03-26T21:22:34.177Z,99.90
2023-03-26T21:25:19.701Z,99.90
2023-03-26T21:28:35.486Z,99.90
2023-03-26T21:31:19.087Z,99.90
2023-03-26T21:33:49.305Z,99.90
2023-03-26T21:36:18.668Z,99.90
2023-03-26T21:38:46.522Z,99.90
2023-03-26T21:41:45.044Z,99.90
2023-03-26T21:44:12.121Z,99.90
2023-03-26T21:46:43.190Z,99.90
2023-03-26T21:49:10.899Z,99.90
2023-03-26T21:51:38.441Z,99.90
2023-03-26T21:54:29.061Z,99.90
2023-03-26T21:57:04.765Z,99.90
2023-03-26T22:00:01.863Z,99.90
2023-03-26T22:02:58.158Z,99.90
2023-03-26T22:05:55.771Z,99.90
2023-03-26T22:08:32.440Z,99.90
2023-03-26T22:10:59.506Z,99.90
2023-03-26T22:13:27.219Z,99.90
2023-03-26T22:15:54.649Z,99.90
2023-03-26T22:18:21.732Z,99.90
2023-03-26T22:20:49.586Z,99.90
2023-03-26T22:23:16.934Z,99.90
2023-03-26T22:25:45.472Z,99.90
2023-03-26T22:28:13.779Z,99.90
2023-03-26T22:30:41.557Z,99.90
2023-03-26T22:33:11.065Z,99.90
2023-03-26T22:35:39.160Z,99.90
2023-03-26T22:38:06.878Z,99.90
2023-03-26T22:40:33.847Z,99.90
2023-03-26T22:43:00.757Z,99.90
2023-03-26T22:45:28.002Z,99.90
2023-03-26T22:48:03.796Z,99.90
2023-03-26T22:50:32.573Z,99.90
2023-03-26T22:52:59.735Z,99.90
2023-03-26T22:55:29.346Z,99.90
2023-03-26T22:57:57.368Z,99.90
2023-03-26T23:00:26.439Z,99.90
2023-03-26T23:02:55.774Z,99.90
2023-03-26T23:05:23.503Z,99.90
2023-03-26T23:07:51.824Z,99.90
2023-03-26T23:10:18.853Z,99.90
2023-03-26T23:12:45.776Z,99.90
2023-03-26T23:15:13.118Z,99.90
2023-03-26T23:17:40.250Z,99.90
2023-03-26T23:20:15.654Z,99.90
2023-03-26T23:22:43.464Z,99.90
2023-03-26T23:25:11.629Z,99.90
2023-03-26T23:27:40.345Z,99.90
2023-03-26T23:30:09.415Z,99.90
2023-03-26T23:32:37.909Z,99.90
2023-03-26T23:35:06.142Z,99.90
2023-03-26T23:37:35.028Z,99.90
2023-03-26T23:40:07.372Z,99.90
2023-03-26T23:42:34.559Z,99.90
2023-03-26T23:45:02.061Z,99.90
2023-03-26T23:47:34.378Z,99.90
2023-03-26T23:50:02.511Z,99.90
2023-03-26T23:52:30.679Z,99.90
2023-03-26T23:55:01.137Z,99.90
2023-03-26T23:57:29.030Z,99.90
2023-03-26T23:59:56.225Z,99.90
